Limerick, New York
Current Conditions -  °F | °C
As of 2:56 AM on Monday 24 Nov 2014 (Local Time) from KART Reporting Station
Light Rain Light Rain  
Wind Chill: 54°   Ceiling: 8500
Heat Index: 54°   Visibility: 10mi
Dew Point: 44°   Wind: 18mph
Humidity: 69%   Direction: 150°SSE
Pressure: 29.57"   Gusts: 29mph
Location:  44.03°N, 76.04°W
Report Text: KART 240756Z AUTO 15016G25KT 10SM -RA OVC085 12/07 A2957 RMK AO2 PK WND 15029/0724 RAB06 PRESFR SLP012 P0003 T01220067
Loading
Personal Weather Stations






























Interactive Weather Map New forecast layout! Learn more

10-Day Weather Forecast

Advertisements
Track Severe Weather on mobile